sensor_id;sensor_type;location;lat;lon;timestamp;pressure;altitude;pressure_sealevel;temperature;humidity
74329;BME280;62749;51.982;5.916;2022-10-23T00:02:05;101330.81;;;13.26;84.68
74329;BME280;62749;51.982;5.916;2022-10-23T00:04:34;101326.50;;;13.24;84.53
74329;BME280;62749;51.982;5.916;2022-10-23T00:07:03;101319.63;;;13.19;85.08
74329;BME280;62749;51.982;5.916;2022-10-23T00:09:32;101312.59;;;13.18;85.01
74329;BME280;62749;51.982;5.916;2022-10-23T00:12:02;101299.31;;;13.18;84.87
74329;BME280;62749;51.982;5.916;2022-10-23T00:14:32;101307.28;;;13.18;85.03
74329;BME280;62749;51.982;5.916;2022-10-23T00:17:03;101295.88;;;13.16;85.14
74329;BME280;62749;51.982;5.916;2022-10-23T00:19:33;101300.34;;;13.16;84.98
74329;BME280;62749;51.982;5.916;2022-10-23T00:22:02;101292.72;;;13.08;84.80
74329;BME280;62749;51.982;5.916;2022-10-23T00:24:34;101294.28;;;13.12;84.98
74329;BME280;62749;51.982;5.916;2022-10-23T00:27:03;101312.09;;;13.10;85.01
74329;BME280;62749;51.982;5.916;2022-10-23T00:29:32;101306.94;;;13.05;85.13
74329;BME280;62749;51.982;5.916;2022-10-23T00:32:04;101312.34;;;13.04;85.24
74329;BME280;62749;51.982;5.916;2022-10-23T00:34:34;101315.00;;;13.04;85.01
74329;BME280;62749;51.982;5.916;2022-10-23T00:37:03;101309.00;;;12.99;85.06
74329;BME280;62749;51.982;5.916;2022-10-23T00:39:34;101299.41;;;12.96;84.97
74329;BME280;62749;51.982;5.916;2022-10-23T00:42:04;101311.03;;;12.94;85.44
74329;BME280;62749;51.982;5.916;2022-10-23T00:47:36;101309.00;;;12.99;84.94
74329;BME280;62749;51.982;5.916;2022-10-23T00:50:08;101296.69;;;12.98;85.08
74329;BME280;62749;51.982;5.916;2022-10-23T00:52:41;101294.91;;;12.98;84.99
74329;BME280;62749;51.982;5.916;2022-10-23T00:55:12;101291.38;;;12.98;85.12
74329;BME280;62749;51.982;5.916;2022-10-23T00:57:44;101289.72;;;12.95;84.94
74329;BME280;62749;51.982;5.916;2022-10-23T01:00:16;101288.72;;;12.98;84.95
74329;BME280;62749;51.982;5.916;2022-10-23T01:02:49;101293.25;;;12.96;84.79
74329;BME280;62749;51.982;5.916;2022-10-23T01:05:26;101284.50;;;12.94;85.29
74329;BME280;62749;51.982;5.916;2022-10-23T01:08:03;101298.56;;;12.96;85.11
74329;BME280;62749;51.982;5.916;2022-10-23T01:10:41;101287.22;;;12.92;84.99
74329;BME280;62749;51.982;5.916;2022-10-23T01:13:19;101290.03;;;12.89;85.07
74329;BME280;62749;51.982;5.916;2022-10-23T01:15:56;101283.63;;;12.93;85.04
74329;BME280;62749;51.982;5.916;2022-10-23T01:18:39;101290.78;;;12.91;84.93
74329;BME280;62749;51.982;5.916;2022-10-23T01:21:13;101290.75;;;12.93;85.04
74329;BME280;62749;51.982;5.916;2022-10-23T01:24:04;101291.66;;;12.92;84.93
74329;BME280;62749;51.982;5.916;2022-10-23T01:26:48;101289.94;;;12.91;84.92
74329;BME280;62749;51.982;5.916;2022-10-23T01:29:27;101286.50;;;12.88;84.86
74329;BME280;62749;51.982;5.916;2022-10-23T01:32:04;101280.25;;;12.89;85.19
74329;BME280;62749;51.982;5.916;2022-10-23T01:34:43;101279.41;;;12.89;84.78
74329;BME280;62749;51.982;5.916;2022-10-23T01:37:20;101275.09;;;12.86;85.35
74329;BME280;62749;51.982;5.916;2022-10-23T01:39:56;101270.56;;;12.88;85.14
74329;BME280;62749;51.982;5.916;2022-10-23T01:42:35;101275.16;;;12.85;85.02
74329;BME280;62749;51.982;5.916;2022-10-23T01:45:15;101272.59;;;12.83;85.32
74329;BME280;62749;51.982;5.916;2022-10-23T01:47:49;101266.41;;;12.83;85.01
74329;BME280;62749;51.982;5.916;2022-10-23T01:50:23;101260.25;;;12.82;85.00
74329;BME280;62749;51.982;5.916;2022-10-23T01:52:53;101261.19;;;12.81;85.12
74329;BME280;62749;51.982;5.916;2022-10-23T01:55:23;101254.22;;;12.79;85.45
74329;BME280;62749;51.982;5.916;2022-10-23T01:57:54;101253.34;;;12.78;85.16
74329;BME280;62749;51.982;5.916;2022-10-23T02:00:26;101254.28;;;12.77;85.19
74329;BME280;62749;51.982;5.916;2022-10-23T02:02:57;101250.78;;;12.77;85.21
74329;BME280;62749;51.982;5.916;2022-10-23T02:05:30;101253.34;;;12.78;85.24
74329;BME280;62749;51.982;5.916;2022-10-23T02:08:00;101241.03;;;12.77;85.06
74329;BME280;62749;51.982;5.916;2022-10-23T02:10:44;101241.16;;;12.74;85.35
74329;BME280;62749;51.982;5.916;2022-10-23T02:16:23;101238.59;;;12.72;85.13
74329;BME280;62749;51.982;5.916;2022-10-23T02:19:03;101222.81;;;12.69;85.55
74329;BME280;62749;51.982;5.916;2022-10-23T02:21:47;101235.13;;;12.70;85.47
74329;BME280;62749;51.982;5.916;2022-10-23T02:24:28;101218.50;;;12.67;85.33
74329;BME280;62749;51.982;5.916;2022-10-23T02:27:09;101221.09;;;12.68;85.36
74329;BME280;62749;51.982;5.916;2022-10-23T02:29:44;101215.00;;;12.66;85.62
74329;BME280;62749;51.982;5.916;2022-10-23T02:32:20;101211.63;;;12.63;85.44
74329;BME280;62749;51.982;5.916;2022-10-23T02:34:52;101205.72;;;12.56;85.72
74329;BME280;62749;51.982;5.916;2022-10-23T02:37:22;101212.88;;;12.54;85.86
74329;BME280;62749;51.982;5.916;2022-10-23T02:39:52;101214.75;;;12.52;86.02
74329;BME280;62749;51.982;5.916;2022-10-23T02:42:28;101227.13;;;12.51;86.13
74329;BME280;62749;51.982;5.916;2022-10-23T02:45:06;101211.16;;;12.53;85.88
74329;BME280;62749;51.982;5.916;2022-10-23T02:47:49;101219.91;;;12.55;85.51
74329;BME280;62749;51.982;5.916;2022-10-23T02:50:28;101216.31;;;12.56;85.36
74329;BME280;62749;51.982;5.916;2022-10-23T02:53:09;101217.53;;;12.49;85.52
74329;BME280;62749;51.982;5.916;2022-10-23T02:55:52;101216.53;;;12.51;85.63
74329;BME280;62749;51.982;5.916;2022-10-23T02:58:30;101215.72;;;12.49;85.59
74329;BME280;62749;51.982;5.916;2022-10-23T03:01:06;101213.88;;;12.51;85.69
74329;BME280;62749;51.982;5.916;2022-10-23T03:03:43;101205.22;;;12.48;85.61
74329;BME280;62749;51.982;5.916;2022-10-23T03:06:16;101205.13;;;12.49;85.83
74329;BME280;62749;51.982;5.916;2022-10-23T03:08:51;101203.41;;;12.48;85.55
74329;BME280;62749;51.982;5.916;2022-10-23T03:11:21;101192.09;;;12.45;85.80
74329;BME280;62749;51.982;5.916;2022-10-23T03:13:51;101186.91;;;12.41;85.95
74329;BME280;62749;51.982;5.916;2022-10-23T03:16:20;101181.47;;;12.45;86.54
74329;BME280;62749;51.982;5.916;2022-10-23T03:18:52;101170.03;;;12.44;86.07
74329;BME280;62749;51.982;5.916;2022-10-23T03:21:22;101172.69;;;12.44;86.04
74329;BME280;62749;51.982;5.916;2022-10-23T03:23:51;101170.97;;;12.43;85.94
74329;BME280;62749;51.982;5.916;2022-10-23T03:26:21;101162.13;;;12.42;86.24
74329;BME280;62749;51.982;5.916;2022-10-23T03:28:50;101170.88;;;12.45;86.25
74329;BME280;62749;51.982;5.916;2022-10-23T03:31:19;101163.88;;;12.43;86.25
74329;BME280;62749;51.982;5.916;2022-10-23T03:33:51;101160.22;;;12.46;86.11
74329;BME280;62749;51.982;5.916;2022-10-23T03:36:21;101155.88;;;12.45;86.21
74329;BME280;62749;51.982;5.916;2022-10-23T03:38:50;101161.16;;;12.45;86.18
74329;BME280;62749;51.982;5.916;2022-10-23T03:41:20;101157.72;;;12.43;86.48
74329;BME280;62749;51.982;5.916;2022-10-23T03:43:49;101159.44;;;12.44;86.19
74329;BME280;62749;51.982;5.916;2022-10-23T03:46:18;101148.88;;;12.42;86.38
74329;BME280;62749;51.982;5.916;2022-10-23T03:48:48;101152.34;;;12.45;86.41
74329;BME280;62749;51.982;5.916;2022-10-23T03:51:20;101147.97;;;12.43;86.43
74329;BME280;62749;51.982;5.916;2022-10-23T03:53:49;101155.72;;;12.48;86.58
74329;BME280;62749;51.982;5.916;2022-10-23T03:56:18;101141.66;;;12.46;86.66
74329;BME280;62749;51.982;5.916;2022-10-23T03:58:48;101138.09;;;12.47;86.65
74329;BME280;62749;51.982;5.916;2022-10-23T04:01:17;101134.66;;;12.45;86.56
74329;BME280;62749;51.982;5.916;2022-10-23T04:03:46;101134.50;;;12.48;86.69
74329;BME280;62749;51.982;5.916;2022-10-23T04:06:19;101123.88;;;12.50;86.63
74329;BME280;62749;51.982;5.916;2022-10-23T04:08:48;101123.91;;;12.48;86.68
74329;BME280;62749;51.982;5.916;2022-10-23T04:11:17;101128.38;;;12.48;86.56
74329;BME280;62749;51.982;5.916;2022-10-23T04:13:47;101122.97;;;12.49;86.54
74329;BME280;62749;51.982;5.916;2022-10-23T04:16:16;101111.59;;;12.47;86.66
74329;BME280;62749;51.982;5.916;2022-10-23T04:18:46;101108.00;;;12.48;86.82
74329;BME280;62749;51.982;5.916;2022-10-23T04:21:15;101102.88;;;12.45;86.91
74329;BME280;62749;51.982;5.916;2022-10-23T04:23:47;101101.16;;;12.44;87.03
74329;BME280;62749;51.982;5.916;2022-10-23T04:26:17;101095.97;;;12.41;87.37
74329;BME280;62749;51.982;5.916;2022-10-23T04:28:46;101099.44;;;12.43;87.29
74329;BME280;62749;51.982;5.916;2022-10-23T04:31:16;101096.63;;;12.46;87.53
74329;BME280;62749;51.982;5.916;2022-10-23T04:33:45;101090.25;;;12.50;87.18
74329;BME280;62749;51.982;5.916;2022-10-23T04:36:15;101088.28;;;12.55;86.79
74329;BME280;62749;51.982;5.916;2022-10-23T04:38:47;101096.22;;;12.55;87.06
74329;BME280;62749;51.982;5.916;2022-10-23T04:41:16;101097.16;;;12.54;87.09
74329;BME280;62749;51.982;5.916;2022-10-23T04:43:46;101097.03;;;12.57;86.99
74329;BME280;62749;51.982;5.916;2022-10-23T04:46:15;101088.97;;;12.59;86.58
74329;BME280;62749;51.982;5.916;2022-10-23T04:48:44;101088.13;;;12.58;86.55
74329;BME280;62749;51.982;5.916;2022-10-23T04:51:14;101088.28;;;12.55;86.91
74329;BME280;62749;51.982;5.916;2022-10-23T04:53:43;101083.03;;;12.54;86.81
74329;BME280;62749;51.982;5.916;2022-10-23T04:56:15;101072.59;;;12.51;87.12
74329;BME280;62749;51.982;5.916;2022-10-23T04:58:44;101074.22;;;12.53;87.22
74329;BME280;62749;51.982;5.916;2022-10-23T05:01:14;101075.16;;;12.52;87.14
74329;BME280;62749;51.982;5.916;2022-10-23T05:03:43;101071.56;;;12.53;87.23
74329;BME280;62749;51.982;5.916;2022-10-23T05:06:12;101070.00;;;12.49;87.43
74329;BME280;62749;51.982;5.916;2022-10-23T05:08:42;101070.78;;;12.51;87.67
74329;BME280;62749;51.982;5.916;2022-10-23T05:11:11;101070.69;;;12.53;87.55
74329;BME280;62749;51.982;5.916;2022-10-23T05:13:43;101067.19;;;12.52;87.57
74329;BME280;62749;51.982;5.916;2022-10-23T05:16:27;101064.34;;;12.57;87.36
74329;BME280;62749;51.982;5.916;2022-10-23T05:19:01;101060.69;;;12.59;87.09
74329;BME280;62749;51.982;5.916;2022-10-23T05:21:34;101065.22;;;12.57;87.05
74329;BME280;62749;51.982;5.916;2022-10-23T05:24:05;101051.97;;;12.57;87.25
74329;BME280;62749;51.982;5.916;2022-10-23T05:26:34;101056.38;;;12.57;87.51
74329;BME280;62749;51.982;5.916;2022-10-23T05:29:06;101058.91;;;12.60;87.22
74329;BME280;62749;51.982;5.916;2022-10-23T05:31:35;101058.91;;;12.60;87.13
74329;BME280;62749;51.982;5.916;2022-10-23T05:34:05;101050.06;;;12.59;87.45
74329;BME280;62749;51.982;5.916;2022-10-23T05:36:36;101052.59;;;12.63;87.15
74329;BME280;62749;51.982;5.916;2022-10-23T05:39:05;101051.59;;;12.65;87.41
74329;BME280;62749;51.982;5.916;2022-10-23T05:41:35;101048.75;;;12.70;87.46
74329;BME280;62749;51.982;5.916;2022-10-23T05:44:07;101041.63;;;12.70;87.48
74329;BME280;62749;51.982;5.916;2022-10-23T05:46:39;101059.97;;;12.75;87.57
74329;BME280;62749;51.982;5.916;2022-10-23T05:49:09;101062.50;;;12.78;87.44
74329;BME280;62749;51.982;5.916;2022-10-23T05:51:39;101055.47;;;12.77;87.19
74329;BME280;62749;51.982;5.916;2022-10-23T05:54:09;101056.25;;;12.79;87.27
74329;BME280;62749;51.982;5.916;2022-10-23T05:56:38;101044.78;;;12.79;87.41
74329;BME280;62749;51.982;5.916;2022-10-23T05:59:11;101045.56;;;12.81;87.35
74329;BME280;62749;51.982;5.916;2022-10-23T06:01:40;101043.72;;;12.83;87.34
74329;BME280;62749;51.982;5.916;2022-10-23T06:04:09;101048.78;;;12.87;87.43
74329;BME280;62749;51.982;5.916;2022-10-23T06:06:39;101049.56;;;12.89;87.07
74329;BME280;62749;51.982;5.916;2022-10-23T06:09:08;101047.72;;;12.92;87.28
74329;BME280;62749;51.982;5.916;2022-10-23T06:11:38;101043.13;;;12.95;87.02
74329;BME280;62749;51.982;5.916;2022-10-23T06:14:07;101037.81;;;12.95;87.02
74329;BME280;62749;51.982;5.916;2022-10-23T06:16:39;101030.78;;;12.94;86.90
74329;BME280;62749;51.982;5.916;2022-10-23T06:19:09;101025.63;;;12.91;87.05
74329;BME280;62749;51.982;5.916;2022-10-23T06:21:39;101035.09;;;12.97;87.13
74329;BME280;62749;51.982;5.916;2022-10-23T06:24:09;101028.78;;;12.99;86.72
74329;BME280;62749;51.982;5.916;2022-10-23T06:26:39;101013.72;;;13.00;87.02
74329;BME280;62749;51.982;5.916;2022-10-23T06:29:08;101014.75;;;12.97;86.97
74329;BME280;62749;51.982;5.916;2022-10-23T06:31:41;101008.28;;;13.03;87.00
74329;BME280;62749;51.982;5.916;2022-10-23T06:34:11;101010.00;;;13.04;86.96
74329;BME280;62749;51.982;5.916;2022-10-23T06:36:41;101004.56;;;13.07;86.95
74329;BME280;62749;51.982;5.916;2022-10-23T06:39:10;101000.97;;;13.08;86.89
74329;BME280;62749;51.982;5.916;2022-10-23T06:41:40;101012.28;;;13.12;86.76
74329;BME280;62749;51.982;5.916;2022-10-23T06:44:10;100999.09;;;13.10;86.89
74329;BME280;62749;51.982;5.916;2022-10-23T06:46:43;100996.28;;;13.13;86.88
74329;BME280;62749;51.982;5.916;2022-10-23T06:49:13;101004.19;;;13.15;86.95
74329;BME280;62749;51.982;5.916;2022-10-23T06:51:43;100995.44;;;13.13;86.96
74329;BME280;62749;51.982;5.916;2022-10-23T06:54:12;101001.34;;;13.18;86.72
74329;BME280;62749;51.982;5.916;2022-10-23T06:56:42;101008.31;;;13.20;86.74
74329;BME280;62749;51.982;5.916;2022-10-23T06:59:11;101004.72;;;13.22;86.88
74329;BME280;62749;51.982;5.916;2022-10-23T07:01:43;100995.06;;;13.20;86.75
74329;BME280;62749;51.982;5.916;2022-10-23T07:04:12;100992.22;;;13.24;86.83
74329;BME280;62749;51.982;5.916;2022-10-23T07:06:42;100992.31;;;13.22;86.75
74329;BME280;62749;51.982;5.916;2022-10-23T07:09:11;100988.81;;;13.22;86.77
74329;BME280;62749;51.982;5.916;2022-10-23T07:11:41;100990.34;;;13.26;86.84
74329;BME280;62749;51.982;5.916;2022-10-23T07:14:10;100998.31;;;13.26;86.48
74329;BME280;62749;51.982;5.916;2022-10-23T07:16:40;100989.56;;;13.24;86.62
74329;BME280;62749;51.982;5.916;2022-10-23T07:19:11;100994.72;;;13.27;86.84
74329;BME280;62749;51.982;5.916;2022-10-23T07:21:41;100982.34;;;13.27;86.65
74329;BME280;62749;51.982;5.916;2022-10-23T07:24:10;100990.28;;;13.27;86.88
74329;BME280;62749;51.982;5.916;2022-10-23T07:26:39;100987.56;;;13.29;86.66
74329;BME280;62749;51.982;5.916;2022-10-23T07:29:10;100998.03;;;13.32;86.70
74329;BME280;62749;51.982;5.916;2022-10-23T07:31:44;100976.78;;;13.32;87.06
74329;BME280;62749;51.982;5.916;2022-10-23T07:34:16;100981.97;;;13.35;86.80
74329;BME280;62749;51.982;5.916;2022-10-23T07:36:46;100989.72;;;13.40;86.90
74329;BME280;62749;51.982;5.916;2022-10-23T07:39:15;100980.06;;;13.37;86.77
74329;BME280;62749;51.982;5.916;2022-10-23T07:41:44;100983.28;;;13.44;86.57
74329;BME280;62749;51.982;5.916;2022-10-23T07:44:14;100976.13;;;13.46;86.88
74329;BME280;62749;51.982;5.916;2022-10-23T07:46:43;100974.00;;;13.53;86.64
74329;BME280;62749;51.982;5.916;2022-10-23T07:49:15;100981.91;;;13.54;86.57
74329;BME280;62749;51.982;5.916;2022-10-23T07:51:45;100981.72;;;13.57;86.41
74329;BME280;62749;51.982;5.916;2022-10-23T07:54:14;100971.84;;;13.61;86.33
74329;BME280;62749;51.982;5.916;2022-10-23T07:56:44;100969.00;;;13.64;85.98
74329;BME280;62749;51.982;5.916;2022-10-23T07:59:14;100954.72;;;13.67;86.06
74329;BME280;62749;51.982;5.916;2022-10-23T08:01:44;100959.00;;;13.69;86.07
74329;BME280;62749;51.982;5.916;2022-10-23T08:04:16;100961.56;;;13.71;86.04
74329;BME280;62749;51.982;5.916;2022-10-23T08:06:45;100964.31;;;13.69;86.05
74329;BME280;62749;51.982;5.916;2022-10-23T08:09:15;100965.69;;;13.76;86.19
74329;BME280;62749;51.982;5.916;2022-10-23T08:11:44;100961.09;;;13.80;85.80
74329;BME280;62749;51.982;5.916;2022-10-23T08:14:13;100954.91;;;13.79;86.14
74329;BME280;62749;51.982;5.916;2022-10-23T08:16:43;100961.78;;;13.84;86.02
74329;BME280;62749;51.982;5.916;2022-10-23T08:19:12;100958.19;;;13.85;86.02
74329;BME280;62749;51.982;5.916;2022-10-23T08:21:44;100959.91;;;13.86;86.10
74329;BME280;62749;51.982;5.916;2022-10-23T08:24:13;100948.38;;;13.87;86.01
74329;BME280;62749;51.982;5.916;2022-10-23T08:26:43;100953.41;;;13.91;85.81
74329;BME280;62749;51.982;5.916;2022-10-23T08:29:16;100955.81;;;13.96;85.58
74329;BME280;62749;51.982;5.916;2022-10-23T08:31:45;100957.28;;;14.02;85.69
74329;BME280;62749;51.982;5.916;2022-10-23T08:34:15;100944.69;;;14.05;85.09
74329;BME280;62749;51.982;5.916;2022-10-23T08:36:47;100942.03;;;14.05;85.16
74329;BME280;62749;51.982;5.916;2022-10-23T08:39:16;100939.06;;;14.11;85.22
74329;BME280;62749;51.982;5.916;2022-10-23T08:41:48;100937.94;;;14.16;85.27
74329;BME280;62749;51.982;5.916;2022-10-23T08:44:23;100939.22;;;14.24;84.98
74329;BME280;62749;51.982;5.916;2022-10-23T08:47:00;100932.03;;;14.26;84.70
74329;BME280;62749;51.982;5.916;2022-10-23T08:49:40;100925.69;;;14.29;84.77
74329;BME280;62749;51.982;5.916;2022-10-23T08:52:24;100927.16;;;14.35;84.55
74329;BME280;62749;51.982;5.916;2022-10-23T08:55:12;100919.78;;;14.40;84.38
74329;BME280;62749;51.982;5.916;2022-10-23T08:57:50;100914.09;;;14.46;84.52
74329;BME280;62749;51.982;5.916;2022-10-23T09:00:21;100906.75;;;14.51;84.17
74329;BME280;62749;51.982;5.916;2022-10-23T09:02:52;100916.16;;;14.57;84.15
74329;BME280;62749;51.982;5.916;2022-10-23T09:05:28;100923.97;;;14.60;84.04
74329;BME280;62749;51.982;5.916;2022-10-23T09:08:12;100922.63;;;14.69;83.73
74329;BME280;62749;51.982;5.916;2022-10-23T09:10:59;100905.63;;;14.71;83.55
74329;BME280;62749;51.982;5.916;2022-10-23T09:16:49;100882.59;;;14.86;83.04
74329;BME280;62749;51.982;5.916;2022-10-23T09:19:26;100893.84;;;14.92;82.93
74329;BME280;62749;51.982;5.916;2022-10-23T09:21:57;100879.88;;;14.88;83.25
74329;BME280;62749;51.982;5.916;2022-10-23T09:24:29;100886.63;;;14.94;82.92
74329;BME280;62749;51.982;5.916;2022-10-23T09:26:59;100877.88;;;14.92;82.55
74329;BME280;62749;51.982;5.916;2022-10-23T09:29:31;100881.22;;;14.95;82.83
74329;BME280;62749;51.982;5.916;2022-10-23T09:32:03;100880.38;;;14.95;83.06
74329;BME280;62749;51.982;5.916;2022-10-23T09:34:34;100874.34;;;14.91;82.57
74329;BME280;62749;51.982;5.916;2022-10-23T09:37:21;100875.53;;;15.01;82.71
74329;BME280;62749;51.982;5.916;2022-10-23T09:40:11;100874.22;;;15.09;82.16
74329;BME280;62749;51.982;5.916;2022-10-23T09:42:52;100878.75;;;15.07;82.49
74329;BME280;62749;51.982;5.916;2022-10-23T09:45:28;100872.50;;;15.08;82.42
74329;BME280;62749;51.982;5.916;2022-10-23T09:48:19;100871.38;;;15.12;81.83
74329;BME280;62749;51.982;5.916;2022-10-23T09:50:51;100862.34;;;15.14;82.31
74329;BME280;62749;51.982;5.916;2022-10-23T09:53:28;100863.78;;;15.20;81.91
74329;BME280;62749;51.982;5.916;2022-10-23T09:56:04;100850.41;;;15.22;81.68
74329;BME280;62749;51.982;5.916;2022-10-23T09:58:51;100858.63;;;15.17;81.50
74329;BME280;62749;51.982;5.916;2022-10-23T10:01:23;100841.66;;;15.19;81.78
74329;BME280;62749;51.982;5.916;2022-10-23T10:03:52;100845.16;;;15.20;81.64
74329;BME280;62749;51.982;5.916;2022-10-23T10:06:24;100839.66;;;15.23;82.00
74329;BME280;62749;51.982;5.916;2022-10-23T10:08:56;100848.22;;;15.28;81.42
74329;BME280;62749;51.982;5.916;2022-10-23T10:11:38;100846.78;;;15.37;81.17
74329;BME280;62749;51.982;5.916;2022-10-23T10:14:31;100829.56;;;15.43;81.16
74329;BME280;62749;51.982;5.916;2022-10-23T10:17:07;100811.63;;;15.46;80.79
74329;BME280;62749;51.982;5.916;2022-10-23T10:19:58;100820.28;;;15.50;80.71
74329;BME280;62749;51.982;5.916;2022-10-23T10:22:37;100824.81;;;15.62;80.75
74329;BME280;62749;51.982;5.916;2022-10-23T10:25:16;100802.41;;;15.67;79.63
74329;BME280;62749;51.982;5.916;2022-10-23T10:28:14;100800.38;;;15.70;80.00
74329;BME280;62749;51.982;5.916;2022-10-23T10:31:00;100803.34;;;15.65;79.76
74329;BME280;62749;51.982;5.916;2022-10-23T10:33:44;100800.94;;;15.75;79.66
74329;BME280;62749;51.982;5.916;2022-10-23T10:36:33;100796.28;;;15.79;79.62
74329;BME280;62749;51.982;5.916;2022-10-23T10:39:16;100792.44;;;15.83;79.33
74329;BME280;62749;51.982;5.916;2022-10-23T10:42:02;100789.91;;;15.82;79.45
74329;BME280;62749;51.982;5.916;2022-10-23T10:44:56;100792.28;;;15.86;79.48
74329;BME280;62749;51.982;5.916;2022-10-23T10:47:37;100784.31;;;15.86;79.38
74329;BME280;62749;51.982;5.916;2022-10-23T10:50:18;100766.88;;;15.95;79.25
74329;BME280;62749;51.982;5.916;2022-10-23T10:52:57;100759.00;;;15.93;78.86
74329;BME280;62749;51.982;5.916;2022-10-23T10:55:34;100749.19;;;15.94;78.77
74329;BME280;62749;51.982;5.916;2022-10-23T10:58:14;100749.75;;;15.99;78.74
74329;BME280;62749;51.982;5.916;2022-10-23T11:00:53;100733.44;;;16.04;78.54
74329;BME280;62749;51.982;5.916;2022-10-23T11:03:33;100736.66;;;16.09;78.18
74329;BME280;62749;51.982;5.916;2022-10-23T11:06:11;100728.34;;;16.14;78.19
74329;BME280;62749;51.982;5.916;2022-10-23T11:08:43;100728.75;;;16.07;77.77
74329;BME280;62749;51.982;5.916;2022-10-23T11:11:18;100722.72;;;16.18;77.49
74329;BME280;62749;51.982;5.916;2022-10-23T11:13:50;100721.03;;;16.30;77.04
74329;BME280;62749;51.982;5.916;2022-10-23T11:16:27;100725.84;;;16.25;76.70
74329;BME280;62749;51.982;5.916;2022-10-23T11:19:04;100723.06;;;16.26;76.91
74329;BME280;62749;51.982;5.916;2022-10-23T11:21:41;100711.56;;;16.26;77.07
74329;BME280;62749;51.982;5.916;2022-10-23T11:24:36;100709.09;;;16.36;76.89
74329;BME280;62749;51.982;5.916;2022-10-23T11:27:45;100706.78;;;16.44;76.55
74329;BME280;62749;51.982;5.916;2022-10-23T11:30:23;100692.28;;;16.48;76.24
74329;BME280;62749;51.982;5.916;2022-10-23T11:36:11;100702.75;;;16.64;76.04
74329;BME280;62749;51.982;5.916;2022-10-23T11:38:44;100692.53;;;16.71;75.67
74329;BME280;62749;51.982;5.916;2022-10-23T11:41:20;100678.09;;;16.86;75.21
74329;BME280;62749;51.982;5.916;2022-10-23T11:43:52;100663.03;;;16.85;74.60
74329;BME280;62749;51.982;5.916;2022-10-23T11:46:34;100656.13;;;16.96;74.75
74329;BME280;62749;51.982;5.916;2022-10-23T11:49:19;100652.50;;;16.97;74.01
74329;BME280;62749;51.982;5.916;2022-10-23T11:51:59;100649.81;;;16.84;74.55
74329;BME280;62749;51.982;5.916;2022-10-23T11:54:29;100647.19;;;16.97;74.63
74329;BME280;62749;51.982;5.916;2022-10-23T11:57:17;100646.09;;;16.99;74.50
74329;BME280;62749;51.982;5.916;2022-10-23T11:59:53;100655.25;;;17.08;74.01
74329;BME280;62749;51.982;5.916;2022-10-23T12:02:30;100645.63;;;17.18;73.57
74329;BME280;62749;51.982;5.916;2022-10-23T12:05:07;100645.97;;;17.14;73.39
74329;BME280;62749;51.982;5.916;2022-10-23T12:07:40;100625.84;;;17.21;73.65
74329;BME280;62749;51.982;5.916;2022-10-23T12:10:27;100634.81;;;17.33;73.04
74329;BME280;62749;51.982;5.916;2022-10-23T12:13:01;100641.69;;;17.48;72.82
74329;BME280;62749;51.982;5.916;2022-10-23T12:15:32;100637.47;;;17.57;72.96
74329;BME280;62749;51.982;5.916;2022-10-23T12:18:13;100615.88;;;17.60;72.95
74329;BME280;62749;51.982;5.916;2022-10-23T12:20:50;100626.97;;;17.67;72.23
74329;BME280;62749;51.982;5.916;2022-10-23T12:23:32;100613.63;;;17.78;72.07
74329;BME280;62749;51.982;5.916;2022-10-23T12:26:20;100615.34;;;17.79;72.47
74329;BME280;62749;51.982;5.916;2022-10-23T12:29:00;100606.88;;;17.86;71.97
74329;BME280;62749;51.982;5.916;2022-10-23T12:31:46;100613.06;;;17.86;71.45
74329;BME280;62749;51.982;5.916;2022-10-23T12:34:32;100602.50;;;17.85;71.24
74329;BME280;62749;51.982;5.916;2022-10-23T12:37:26;100591.34;;;17.91;71.94
74329;BME280;62749;51.982;5.916;2022-10-23T12:40:07;100584.94;;;17.93;71.50
74329;BME280;62749;51.982;5.916;2022-10-23T12:42:37;100590.13;;;17.95;71.40
74329;BME280;62749;51.982;5.916;2022-10-23T12:45:16;100589.41;;;17.93;71.44
74329;BME280;62749;51.982;5.916;2022-10-23T12:47:48;100585.34;;;18.00;71.62
74329;BME280;62749;51.982;5.916;2022-10-23T12:50:21;100588.97;;;17.99;71.41
74329;BME280;62749;51.982;5.916;2022-10-23T12:52:56;100586.56;;;18.07;72.16
74329;BME280;62749;51.982;5.916;2022-10-23T12:55:30;100579.50;;;18.06;71.22
74329;BME280;62749;51.982;5.916;2022-10-23T12:58:00;100569.41;;;18.10;70.96
74329;BME280;62749;51.982;5.916;2022-10-23T13:00:30;100568.09;;;18.16;70.54
74329;BME280;62749;51.982;5.916;2022-10-23T13:03:00;100564.22;;;18.20;70.97
74329;BME280;62749;51.982;5.916;2022-10-23T13:05:31;100566.44;;;18.26;71.16
74329;BME280;62749;51.982;5.916;2022-10-23T13:08:04;100554.38;;;18.20;71.19
74329;BME280;62749;51.982;5.916;2022-10-23T13:10:34;100547.22;;;18.21;71.04
74329;BME280;62749;51.982;5.916;2022-10-23T13:13:06;100555.75;;;18.26;71.41
74329;BME280;62749;51.982;5.916;2022-10-23T13:15:38;100551.00;;;18.30;71.28
74329;BME280;62749;51.982;5.916;2022-10-23T13:18:09;100549.53;;;18.25;70.82
74329;BME280;62749;51.982;5.916;2022-10-23T13:20:42;100544.03;;;18.27;70.89
74329;BME280;62749;51.982;5.916;2022-10-23T13:23:28;100537.03;;;18.26;71.60
74329;BME280;62749;51.982;5.916;2022-10-23T13:26:03;100534.69;;;18.21;71.88
74329;BME280;62749;51.982;5.916;2022-10-23T13:28:40;100522.19;;;18.22;71.27
74329;BME280;62749;51.982;5.916;2022-10-23T13:31:27;100516.84;;;18.22;71.42
74329;BME280;62749;51.982;5.916;2022-10-23T13:34:17;100513.66;;;18.28;71.52
74329;BME280;62749;51.982;5.916;2022-10-23T13:36:59;100514.53;;;18.29;71.59
74329;BME280;62749;51.982;5.916;2022-10-23T13:39:32;100499.31;;;18.29;71.39